Main page
METAR-TAF:

METAR-TAF

Airports :

Málaga, Spain

Málaga Airport

latitude: 36-40N, longitude: 004-29W, elevation: 16 m

Current weather observation

The report was made 19 minutes ago, at 04:30 UTC
Wind 6 kt from the West/Northwest
Temperature 14°C
Humidity 94%
Pressure 1016 hPa
Visibility: 8000 m
Few clouds at a height of 1000 ft

METAR: LEMG 270430Z 29006KT 8000 FEW010 14/13 Q1016 NOSIG

Time: 06:49 (04:49 UTC)

Forecast

The report was made 5 hours and 49 minutes ago, at 23:00 UTC
Forecast valid from 27 at 00 UTC to 27 at 24 UTC
Wind 6 kt from the West
Visibility 10 km or more
Few clouds at a height of 3000 ft
Probability 30% :
Temporary
from 27 at 00 UTC to 27 at 06 UTC
Visibility: 4000 m
Broken clouds at a height of 1200 ft
mist
Becoming
from 27 at 11 UTC to 27 at 13 UTC
Wind 8 kt from the South/Southeast

TAF: LEMG 262300Z 2700/2724 28006KT 9999 FEW030 TX21/2714Z TN14/2705Z PROB30 TEMPO 2700/2706 4000 BR BKN012 BECMG 2711/2713 15008KT

Weather observations and forecasts of more than 4000 airports (METAR and TAF reports).

The available stations are represented by yellow and red dots on the map.

Hover mouse over dot to see the name of the station.

Then click to see weather observations and forecasts.

To change the map : click on the green buttons with a black cross to zoom in, on the green button with a dash to zoom out, or on the green arrows for adjacent maps.


METAR-TAF: